sensor_id;sensor_type;location;lat;lon;timestamp;temperature;humidity
11446;DHT22;5779;64.178;15.432;2022-07-10T00:01:50;9.90;99.90
11446;DHT22;5779;64.178;15.432;2022-07-10T00:04:37;10.00;99.90
11446;DHT22;5779;64.178;15.432;2022-07-10T00:07:23;10.00;99.90
11446;DHT22;5779;64.178;15.432;2022-07-10T00:10:10;10.00;99.90
11446;DHT22;5779;64.178;15.432;2022-07-10T00:12:57;10.00;99.90
11446;DHT22;5779;64.178;15.432;2022-07-10T00:15:45;10.00;99.90
11446;DHT22;5779;64.178;15.432;2022-07-10T00:18:32;10.10;99.90
11446;DHT22;5779;64.178;15.432;2022-07-10T00:21:19;10.10;99.90
11446;DHT22;5779;64.178;15.432;2022-07-10T00:24:06;10.20;99.90
11446;DHT22;5779;64.178;15.432;2022-07-10T00:26:55;10.10;99.90
11446;DHT22;5779;64.178;15.432;2022-07-10T00:29:41;10.10;99.90
11446;DHT22;5779;64.178;15.432;2022-07-10T00:32:30;10.10;99.90
11446;DHT22;5779;64.178;15.432;2022-07-10T00:35:16;10.00;99.90
11446;DHT22;5779;64.178;15.432;2022-07-10T00:38:03;10.00;99.90
11446;DHT22;5779;64.178;15.432;2022-07-10T00:40:49;10.00;99.90
11446;DHT22;5779;64.178;15.432;2022-07-10T00:43:51;9.90;99.90
11446;DHT22;5779;64.178;15.432;2022-07-10T00:46:38;10.00;99.90
11446;DHT22;5779;64.178;15.432;2022-07-10T00:49:27;10.00;99.90
11446;DHT22;5779;64.178;15.432;2022-07-10T00:52:15;10.00;99.90
11446;DHT22;5779;64.178;15.432;2022-07-10T00:55:02;10.00;99.90
11446;DHT22;5779;64.178;15.432;2022-07-10T00:57:49;10.00;99.90
11446;DHT22;5779;64.178;15.432;2022-07-10T01:00:36;10.00;99.90
11446;DHT22;5779;64.178;15.432;2022-07-10T01:03:23;10.00;99.90
11446;DHT22;5779;64.178;15.432;2022-07-10T01:06:12;10.00;99.90
11446;DHT22;5779;64.178;15.432;2022-07-10T01:08:59;10.10;99.90
11446;DHT22;5779;64.178;15.432;2022-07-10T01:11:45;10.30;99.90
11446;DHT22;5779;64.178;15.432;2022-07-10T01:14:32;10.40;99.90
11446;DHT22;5779;64.178;15.432;2022-07-10T01:17:20;10.40;99.90
11446;DHT22;5779;64.178;15.432;2022-07-10T01:20:08;10.20;99.90
11446;DHT22;5779;64.178;15.432;2022-07-10T01:23:00;10.10;99.90
11446;DHT22;5779;64.178;15.432;2022-07-10T01:25:46;10.30;99.90
11446;DHT22;5779;64.178;15.432;2022-07-10T01:28:33;10.30;99.90
11446;DHT22;5779;64.178;15.432;2022-07-10T01:31:23;10.10;99.90
11446;DHT22;5779;64.178;15.432;2022-07-10T01:34:10;10.00;99.90
11446;DHT22;5779;64.178;15.432;2022-07-10T01:36:57;10.10;99.90
11446;DHT22;5779;64.178;15.432;2022-07-10T01:39:45;10.10;99.90
11446;DHT22;5779;64.178;15.432;2022-07-10T01:42:31;10.30;99.90
11446;DHT22;5779;64.178;15.432;2022-07-10T01:45:18;10.20;99.90
11446;DHT22;5779;64.178;15.432;2022-07-10T01:48:05;10.00;99.90
11446;DHT22;5779;64.178;15.432;2022-07-10T01:50:52;9.90;99.90
11446;DHT22;5779;64.178;15.432;2022-07-10T01:53:39;9.90;99.90
11446;DHT22;5779;64.178;15.432;2022-07-10T01:56:27;10.00;99.90
11446;DHT22;5779;64.178;15.432;2022-07-10T01:59:13;10.00;99.90
11446;DHT22;5779;64.178;15.432;2022-07-10T02:02:00;10.00;99.90
11446;DHT22;5779;64.178;15.432;2022-07-10T02:04:47;10.00;99.90
11446;DHT22;5779;64.178;15.432;2022-07-10T02:07:32;10.00;99.90
11446;DHT22;5779;64.178;15.432;2022-07-10T02:10:18;10.00;99.90
11446;DHT22;5779;64.178;15.432;2022-07-10T02:13:07;10.00;99.90
11446;DHT22;5779;64.178;15.432;2022-07-10T02:15:55;10.10;99.90
11446;DHT22;5779;64.178;15.432;2022-07-10T02:18:41;10.10;99.90
11446;DHT22;5779;64.178;15.432;2022-07-10T02:21:28;10.10;99.90
11446;DHT22;5779;64.178;15.432;2022-07-10T02:24:15;10.10;99.90
11446;DHT22;5779;64.178;15.432;2022-07-10T02:27:02;10.10;99.90
11446;DHT22;5779;64.178;15.432;2022-07-10T02:29:50;10.10;99.90
11446;DHT22;5779;64.178;15.432;2022-07-10T02:32:38;10.10;99.90
11446;DHT22;5779;64.178;15.432;2022-07-10T02:35:24;10.10;99.90
11446;DHT22;5779;64.178;15.432;2022-07-10T02:38:11;10.10;99.90
11446;DHT22;5779;64.178;15.432;2022-07-10T02:40:58;10.00;99.90
11446;DHT22;5779;64.178;15.432;2022-07-10T02:43:44;10.00;99.90
11446;DHT22;5779;64.178;15.432;2022-07-10T02:46:32;10.00;99.90
11446;DHT22;5779;64.178;15.432;2022-07-10T02:49:19;10.00;99.90
11446;DHT22;5779;64.178;15.432;2022-07-10T02:52:06;10.00;99.90
11446;DHT22;5779;64.178;15.432;2022-07-10T02:54:52;10.00;99.90
11446;DHT22;5779;64.178;15.432;2022-07-10T02:57:39;10.00;99.90
11446;DHT22;5779;64.178;15.432;2022-07-10T03:00:25;10.00;99.90
11446;DHT22;5779;64.178;15.432;2022-07-10T03:03:14;10.00;99.90
11446;DHT22;5779;64.178;15.432;2022-07-10T03:06:02;10.00;99.90
11446;DHT22;5779;64.178;15.432;2022-07-10T03:08:49;10.00;99.90
11446;DHT22;5779;64.178;15.432;2022-07-10T03:11:35;10.10;99.90
11446;DHT22;5779;64.178;15.432;2022-07-10T03:14:22;10.10;99.90
11446;DHT22;5779;64.178;15.432;2022-07-10T03:17:09;10.10;99.90
11446;DHT22;5779;64.178;15.432;2022-07-10T03:19:57;10.10;99.90
11446;DHT22;5779;64.178;15.432;2022-07-10T03:22:44;10.10;99.90
11446;DHT22;5779;64.178;15.432;2022-07-10T03:25:30;10.20;99.90
11446;DHT22;5779;64.178;15.432;2022-07-10T03:28:17;10.20;99.90
11446;DHT22;5779;64.178;15.432;2022-07-10T03:31:05;10.20;99.90
11446;DHT22;5779;64.178;15.432;2022-07-10T03:33:51;10.20;99.90
11446;DHT22;5779;64.178;15.432;2022-07-10T03:36:40;10.20;99.90
11446;DHT22;5779;64.178;15.432;2022-07-10T03:39:26;10.30;99.90
11446;DHT22;5779;64.178;15.432;2022-07-10T03:42:13;10.30;99.90
11446;DHT22;5779;64.178;15.432;2022-07-10T03:44:59;10.30;99.90
11446;DHT22;5779;64.178;15.432;2022-07-10T03:47:46;10.30;99.90
11446;DHT22;5779;64.178;15.432;2022-07-10T03:50:33;10.40;99.90
11446;DHT22;5779;64.178;15.432;2022-07-10T03:53:21;10.50;99.90
11446;DHT22;5779;64.178;15.432;2022-07-10T03:56:08;10.60;99.90
11446;DHT22;5779;64.178;15.432;2022-07-10T03:59:14;10.60;99.90
11446;DHT22;5779;64.178;15.432;2022-07-10T04:02:00;10.60;99.90
11446;DHT22;5779;64.178;15.432;2022-07-10T04:04:46;10.60;99.90
11446;DHT22;5779;64.178;15.432;2022-07-10T04:07:33;10.60;99.90
11446;DHT22;5779;64.178;15.432;2022-07-10T04:10:21;10.60;99.90
11446;DHT22;5779;64.178;15.432;2022-07-10T04:13:08;10.50;99.90
11446;DHT22;5779;64.178;15.432;2022-07-10T04:15:54;10.60;99.90
11446;DHT22;5779;64.178;15.432;2022-07-10T04:18:41;10.50;99.90
11446;DHT22;5779;64.178;15.432;2022-07-10T04:21:28;10.60;99.90
11446;DHT22;5779;64.178;15.432;2022-07-10T04:24:15;10.60;99.90
11446;DHT22;5779;64.178;15.432;2022-07-10T04:27:04;10.60;99.90
11446;DHT22;5779;64.178;15.432;2022-07-10T04:29:51;10.60;99.90
11446;DHT22;5779;64.178;15.432;2022-07-10T04:32:38;10.60;99.90
11446;DHT22;5779;64.178;15.432;2022-07-10T04:35:24;10.60;99.90
11446;DHT22;5779;64.178;15.432;2022-07-10T04:38:11;10.60;99.90
11446;DHT22;5779;64.178;15.432;2022-07-10T04:40:58;10.60;99.90
11446;DHT22;5779;64.178;15.432;2022-07-10T04:43:46;10.70;99.90
11446;DHT22;5779;64.178;15.432;2022-07-10T04:46:32;10.60;99.90
11446;DHT22;5779;64.178;15.432;2022-07-10T04:49:18;10.70;99.90
11446;DHT22;5779;64.178;15.432;2022-07-10T04:52:06;10.70;99.90
11446;DHT22;5779;64.178;15.432;2022-07-10T04:54:52;10.70;99.90
11446;DHT22;5779;64.178;15.432;2022-07-10T04:57:39;10.70;99.90
11446;DHT22;5779;64.178;15.432;2022-07-10T05:00:30;10.70;99.90
11446;DHT22;5779;64.178;15.432;2022-07-10T05:03:17;10.70;99.90
11446;DHT22;5779;64.178;15.432;2022-07-10T05:06:04;10.80;99.90
11446;DHT22;5779;64.178;15.432;2022-07-10T05:08:50;10.80;99.90
11446;DHT22;5779;64.178;15.432;2022-07-10T05:11:37;10.80;99.90
11446;DHT22;5779;64.178;15.432;2022-07-10T05:14:23;10.90;99.90
11446;DHT22;5779;64.178;15.432;2022-07-10T05:17:12;10.90;99.90
11446;DHT22;5779;64.178;15.432;2022-07-10T05:19:58;10.90;99.90
11446;DHT22;5779;64.178;15.432;2022-07-10T05:22:45;10.90;99.90
11446;DHT22;5779;64.178;15.432;2022-07-10T05:25:32;11.00;99.90
11446;DHT22;5779;64.178;15.432;2022-07-10T05:28:18;11.10;99.90
11446;DHT22;5779;64.178;15.432;2022-07-10T05:31:05;11.10;99.90
11446;DHT22;5779;64.178;15.432;2022-07-10T05:33:53;11.10;99.90
11446;DHT22;5779;64.178;15.432;2022-07-10T05:36:40;11.20;99.90
11446;DHT22;5779;64.178;15.432;2022-07-10T05:39:26;11.20;99.90
11446;DHT22;5779;64.178;15.432;2022-07-10T05:42:13;11.30;99.90
11446;DHT22;5779;64.178;15.432;2022-07-10T05:44:59;11.40;99.90
11446;DHT22;5779;64.178;15.432;2022-07-10T05:47:45;11.60;99.90
11446;DHT22;5779;64.178;15.432;2022-07-10T05:50:33;11.70;99.90
11446;DHT22;5779;64.178;15.432;2022-07-10T05:53:20;11.60;99.90
11446;DHT22;5779;64.178;15.432;2022-07-10T05:56:07;11.70;99.90
11446;DHT22;5779;64.178;15.432;2022-07-10T05:58:54;11.70;99.90
11446;DHT22;5779;64.178;15.432;2022-07-10T06:01:41;11.70;99.90
11446;DHT22;5779;64.178;15.432;2022-07-10T06:04:27;11.70;99.90
11446;DHT22;5779;64.178;15.432;2022-07-10T06:07:15;11.80;99.90
11446;DHT22;5779;64.178;15.432;2022-07-10T06:10:03;12.00;99.90
11446;DHT22;5779;64.178;15.432;2022-07-10T06:12:50;12.20;99.90
11446;DHT22;5779;64.178;15.432;2022-07-10T06:15:36;12.40;99.90
11446;DHT22;5779;64.178;15.432;2022-07-10T06:18:23;12.50;99.90
11446;DHT22;5779;64.178;15.432;2022-07-10T06:21:10;12.70;99.90
11446;DHT22;5779;64.178;15.432;2022-07-10T06:23:58;12.80;99.90
11446;DHT22;5779;64.178;15.432;2022-07-10T06:26:45;12.80;99.90
11446;DHT22;5779;64.178;15.432;2022-07-10T06:29:31;12.80;99.90
11446;DHT22;5779;64.178;15.432;2022-07-10T06:32:18;12.90;99.90
11446;DHT22;5779;64.178;15.432;2022-07-10T06:35:05;12.80;99.90
11446;DHT22;5779;64.178;15.432;2022-07-10T06:37:52;12.80;99.90
11446;DHT22;5779;64.178;15.432;2022-07-10T06:40:41;13.00;99.90
11446;DHT22;5779;64.178;15.432;2022-07-10T06:43:28;13.10;99.90
11446;DHT22;5779;64.178;15.432;2022-07-10T06:46:15;13.20;99.90
11446;DHT22;5779;64.178;15.432;2022-07-10T06:49:01;13.10;99.90
11446;DHT22;5779;64.178;15.432;2022-07-10T06:51:48;13.20;99.90
11446;DHT22;5779;64.178;15.432;2022-07-10T06:54:35;13.20;99.90
11446;DHT22;5779;64.178;15.432;2022-07-10T06:57:23;13.30;99.90
11446;DHT22;5779;64.178;15.432;2022-07-10T07:00:10;13.20;99.90
11446;DHT22;5779;64.178;15.432;2022-07-10T07:02:57;13.30;99.90
11446;DHT22;5779;64.178;15.432;2022-07-10T07:05:43;13.20;99.90
11446;DHT22;5779;64.178;15.432;2022-07-10T07:08:30;13.20;99.90
11446;DHT22;5779;64.178;15.432;2022-07-10T07:11:17;13.10;99.90
11446;DHT22;5779;64.178;15.432;2022-07-10T07:14:05;13.20;99.90
11446;DHT22;5779;64.178;15.432;2022-07-10T07:16:52;13.20;99.90
11446;DHT22;5779;64.178;15.432;2022-07-10T07:19:47;13.30;99.90
11446;DHT22;5779;64.178;15.432;2022-07-10T07:22:52;13.30;99.90
11446;DHT22;5779;64.178;15.432;2022-07-10T07:25:56;13.20;99.90
11446;DHT22;5779;64.178;15.432;2022-07-10T07:28:43;13.20;99.90
11446;DHT22;5779;64.178;15.432;2022-07-10T07:31:31;13.10;99.90
11446;DHT22;5779;64.178;15.432;2022-07-10T07:34:18;13.20;99.90
11446;DHT22;5779;64.178;15.432;2022-07-10T07:37:06;13.30;99.90
11446;DHT22;5779;64.178;15.432;2022-07-10T07:39:52;13.30;99.90
11446;DHT22;5779;64.178;15.432;2022-07-10T07:42:39;13.20;99.90
11446;DHT22;5779;64.178;15.432;2022-07-10T07:45:27;13.20;99.90
11446;DHT22;5779;64.178;15.432;2022-07-10T07:48:15;13.30;99.90
11446;DHT22;5779;64.178;15.432;2022-07-10T07:51:01;13.40;99.90
11446;DHT22;5779;64.178;15.432;2022-07-10T07:53:48;13.40;99.90
11446;DHT22;5779;64.178;15.432;2022-07-10T07:56:35;13.50;99.90
11446;DHT22;5779;64.178;15.432;2022-07-10T07:59:21;13.50;99.90
11446;DHT22;5779;64.178;15.432;2022-07-10T08:02:08;13.80;99.90
11446;DHT22;5779;64.178;15.432;2022-07-10T08:04:56;14.00;99.90
11446;DHT22;5779;64.178;15.432;2022-07-10T08:07:43;13.90;99.90
11446;DHT22;5779;64.178;15.432;2022-07-10T08:10:31;14.10;99.90
11446;DHT22;5779;64.178;15.432;2022-07-10T08:13:17;14.00;99.90
11446;DHT22;5779;64.178;15.432;2022-07-10T08:16:05;13.90;99.90
11446;DHT22;5779;64.178;15.432;2022-07-10T08:18:51;14.00;99.90
11446;DHT22;5779;64.178;15.432;2022-07-10T08:21:40;13.80;99.90
11446;DHT22;5779;64.178;15.432;2022-07-10T08:24:26;13.70;99.90
11446;DHT22;5779;64.178;15.432;2022-07-10T08:27:13;13.60;99.90
11446;DHT22;5779;64.178;15.432;2022-07-10T08:30:00;13.50;99.90
11446;DHT22;5779;64.178;15.432;2022-07-10T08:32:47;13.50;99.90
11446;DHT22;5779;64.178;15.432;2022-07-10T08:35:34;13.70;99.90
11446;DHT22;5779;64.178;15.432;2022-07-10T08:38:22;13.80;99.90
11446;DHT22;5779;64.178;15.432;2022-07-10T08:41:11;13.90;99.90
11446;DHT22;5779;64.178;15.432;2022-07-10T08:43:59;13.70;99.90
11446;DHT22;5779;64.178;15.432;2022-07-10T08:46:46;13.70;99.90
11446;DHT22;5779;64.178;15.432;2022-07-10T08:49:33;13.60;99.90
11446;DHT22;5779;64.178;15.432;2022-07-10T08:52:26;13.60;99.90
11446;DHT22;5779;64.178;15.432;2022-07-10T08:55:16;13.40;99.90
11446;DHT22;5779;64.178;15.432;2022-07-10T08:58:03;13.30;99.90
11446;DHT22;5779;64.178;15.432;2022-07-10T09:00:50;13.40;99.90
11446;DHT22;5779;64.178;15.432;2022-07-10T09:03:38;13.40;99.90
11446;DHT22;5779;64.178;15.432;2022-07-10T09:06:24;13.60;99.90
11446;DHT22;5779;64.178;15.432;2022-07-10T09:09:11;13.70;99.90
11446;DHT22;5779;64.178;15.432;2022-07-10T09:11:59;13.80;99.90
11446;DHT22;5779;64.178;15.432;2022-07-10T09:14:45;13.80;99.90
11446;DHT22;5779;64.178;15.432;2022-07-10T09:17:49;13.90;99.90
11446;DHT22;5779;64.178;15.432;2022-07-10T09:20:37;13.90;99.90
11446;DHT22;5779;64.178;15.432;2022-07-10T09:23:25;14.10;99.90
11446;DHT22;5779;64.178;15.432;2022-07-10T09:26:12;14.00;99.90
11446;DHT22;5779;64.178;15.432;2022-07-10T09:29:07;14.10;99.90
11446;DHT22;5779;64.178;15.432;2022-07-10T09:31:55;14.10;99.90
11446;DHT22;5779;64.178;15.432;2022-07-10T09:34:43;14.20;99.90
11446;DHT22;5779;64.178;15.432;2022-07-10T09:37:30;14.00;99.90
11446;DHT22;5779;64.178;15.432;2022-07-10T09:40:17;14.20;99.90
11446;DHT22;5779;64.178;15.432;2022-07-10T09:43:05;14.30;99.90
11446;DHT22;5779;64.178;15.432;2022-07-10T09:45:53;14.50;99.90
11446;DHT22;5779;64.178;15.432;2022-07-10T09:48:40;14.60;99.90
11446;DHT22;5779;64.178;15.432;2022-07-10T09:51:30;14.90;99.90
11446;DHT22;5779;64.178;15.432;2022-07-10T09:54:18;14.80;99.90
11446;DHT22;5779;64.178;15.432;2022-07-10T09:57:05;14.80;99.90
11446;DHT22;5779;64.178;15.432;2022-07-10T09:59:56;14.70;99.90
11446;DHT22;5779;64.178;15.432;2022-07-10T10:02:45;14.80;99.90
11446;DHT22;5779;64.178;15.432;2022-07-10T10:05:40;15.00;99.90
11446;DHT22;5779;64.178;15.432;2022-07-10T10:08:29;15.00;99.90
11446;DHT22;5779;64.178;15.432;2022-07-10T10:11:19;14.90;99.90
11446;DHT22;5779;64.178;15.432;2022-07-10T10:14:07;14.90;99.90
11446;DHT22;5779;64.178;15.432;2022-07-10T10:16:55;14.80;99.90
11446;DHT22;5779;64.178;15.432;2022-07-10T10:19:44;14.80;99.90
11446;DHT22;5779;64.178;15.432;2022-07-10T10:22:50;15.00;99.90
11446;DHT22;5779;64.178;15.432;2022-07-10T10:25:38;15.10;99.90
11446;DHT22;5779;64.178;15.432;2022-07-10T10:28:26;15.20;99.90
11446;DHT22;5779;64.178;15.432;2022-07-10T10:31:13;15.00;99.90
11446;DHT22;5779;64.178;15.432;2022-07-10T10:33:59;14.80;99.90
11446;DHT22;5779;64.178;15.432;2022-07-10T10:36:47;14.60;99.90
11446;DHT22;5779;64.178;15.432;2022-07-10T10:39:52;14.60;99.90
11446;DHT22;5779;64.178;15.432;2022-07-10T10:42:41;14.50;99.90
11446;DHT22;5779;64.178;15.432;2022-07-10T10:45:32;14.40;99.90
11446;DHT22;5779;64.178;15.432;2022-07-10T10:48:20;14.40;99.90
11446;DHT22;5779;64.178;15.432;2022-07-10T10:51:06;14.70;99.90
11446;DHT22;5779;64.178;15.432;2022-07-10T10:54:04;14.70;99.90
11446;DHT22;5779;64.178;15.432;2022-07-10T10:57:12;14.70;99.90
11446;DHT22;5779;64.178;15.432;2022-07-10T10:59:59;14.60;99.90
11446;DHT22;5779;64.178;15.432;2022-07-10T11:02:46;14.70;99.90
11446;DHT22;5779;64.178;15.432;2022-07-10T11:05:43;14.70;99.90
11446;DHT22;5779;64.178;15.432;2022-07-10T11:08:38;14.60;99.90
11446;DHT22;5779;64.178;15.432;2022-07-10T11:11:45;14.80;99.90
11446;DHT22;5779;64.178;15.432;2022-07-10T11:14:45;15.60;99.90
11446;DHT22;5779;64.178;15.432;2022-07-10T11:17:34;15.60;99.90
11446;DHT22;5779;64.178;15.432;2022-07-10T11:20:21;15.70;99.90
11446;DHT22;5779;64.178;15.432;2022-07-10T11:26:49;15.80;99.90
11446;DHT22;5779;64.178;15.432;2022-07-10T11:29:38;15.50;99.90
11446;DHT22;5779;64.178;15.432;2022-07-10T11:32:26;15.20;99.90
11446;DHT22;5779;64.178;15.432;2022-07-10T11:35:13;15.10;99.90
11446;DHT22;5779;64.178;15.432;2022-07-10T11:37:59;15.10;99.90
11446;DHT22;5779;64.178;15.432;2022-07-10T11:40:46;15.10;99.90
11446;DHT22;5779;64.178;15.432;2022-07-10T11:43:34;14.90;99.90
11446;DHT22;5779;64.178;15.432;2022-07-10T11:46:22;15.00;99.90
11446;DHT22;5779;64.178;15.432;2022-07-10T11:49:09;15.30;99.90
11446;DHT22;5779;64.178;15.432;2022-07-10T11:52:01;15.40;99.90
11446;DHT22;5779;64.178;15.432;2022-07-10T11:54:48;15.60;99.90
11446;DHT22;5779;64.178;15.432;2022-07-10T11:57:38;15.30;99.90
11446;DHT22;5779;64.178;15.432;2022-07-10T12:00:29;15.30;99.90
11446;DHT22;5779;64.178;15.432;2022-07-10T12:03:18;15.60;99.90
11446;DHT22;5779;64.178;15.432;2022-07-10T12:06:06;15.50;99.90
11446;DHT22;5779;64.178;15.432;2022-07-10T12:08:53;15.20;99.90
11446;DHT22;5779;64.178;15.432;2022-07-10T12:11:40;15.20;99.90
11446;DHT22;5779;64.178;15.432;2022-07-10T12:14:27;14.80;99.90
11446;DHT22;5779;64.178;15.432;2022-07-10T12:17:16;14.60;99.90
11446;DHT22;5779;64.178;15.432;2022-07-10T12:20:03;14.40;99.90
11446;DHT22;5779;64.178;15.432;2022-07-10T12:22:50;14.40;99.90
11446;DHT22;5779;64.178;15.432;2022-07-10T12:25:38;14.60;99.90
11446;DHT22;5779;64.178;15.432;2022-07-10T12:28:25;14.60;99.90
11446;DHT22;5779;64.178;15.432;2022-07-10T12:31:20;14.60;99.90
11446;DHT22;5779;64.178;15.432;2022-07-10T12:34:08;14.00;99.90
11446;DHT22;5779;64.178;15.432;2022-07-10T12:36:55;13.90;99.90
11446;DHT22;5779;64.178;15.432;2022-07-10T12:39:46;13.90;99.90
11446;DHT22;5779;64.178;15.432;2022-07-10T12:42:33;13.80;99.90
11446;DHT22;5779;64.178;15.432;2022-07-10T12:45:20;14.10;99.90
11446;DHT22;5779;64.178;15.432;2022-07-10T12:48:06;14.20;99.90
11446;DHT22;5779;64.178;15.432;2022-07-10T12:50:54;14.40;99.90
11446;DHT22;5779;64.178;15.432;2022-07-10T12:53:45;14.30;99.90
11446;DHT22;5779;64.178;15.432;2022-07-10T12:56:36;14.20;99.90
11446;DHT22;5779;64.178;15.432;2022-07-10T12:59:23;14.30;99.90
11446;DHT22;5779;64.178;15.432;2022-07-10T13:02:18;14.30;99.90
11446;DHT22;5779;64.178;15.432;2022-07-10T13:05:06;14.50;99.90
11446;DHT22;5779;64.178;15.432;2022-07-10T13:08:04;14.80;99.90
11446;DHT22;5779;64.178;15.432;2022-07-10T13:10:54;15.10;99.90
11446;DHT22;5779;64.178;15.432;2022-07-10T13:13:41;15.30;99.90
11446;DHT22;5779;64.178;15.432;2022-07-10T13:16:28;15.40;99.90
11446;DHT22;5779;64.178;15.432;2022-07-10T13:19:15;15.30;99.90
11446;DHT22;5779;64.178;15.432;2022-07-10T13:22:02;15.20;99.90
11446;DHT22;5779;64.178;15.432;2022-07-10T13:24:51;15.30;99.90
11446;DHT22;5779;64.178;15.432;2022-07-10T13:27:37;15.00;99.90
11446;DHT22;5779;64.178;15.432;2022-07-10T13:30:24;15.00;99.90
11446;DHT22;5779;64.178;15.432;2022-07-10T13:33:11;15.10;99.90
11446;DHT22;5779;64.178;15.432;2022-07-10T13:36:00;15.00;99.90
11446;DHT22;5779;64.178;15.432;2022-07-10T13:38:46;14.60;99.90
11446;DHT22;5779;64.178;15.432;2022-07-10T13:41:36;14.20;99.90
11446;DHT22;5779;64.178;15.432;2022-07-10T13:44:23;13.60;99.90
11446;DHT22;5779;64.178;15.432;2022-07-10T13:47:09;13.70;99.90
11446;DHT22;5779;64.178;15.432;2022-07-10T13:49:56;13.50;99.90
11446;DHT22;5779;64.178;15.432;2022-07-10T13:52:43;13.50;99.90
11446;DHT22;5779;64.178;15.432;2022-07-10T13:55:29;13.30;99.90
11446;DHT22;5779;64.178;15.432;2022-07-10T13:58:17;13.00;99.90
11446;DHT22;5779;64.178;15.432;2022-07-10T14:01:05;12.80;99.90
11446;DHT22;5779;64.178;15.432;2022-07-10T14:03:52;12.80;99.90
11446;DHT22;5779;64.178;15.432;2022-07-10T14:06:39;12.80;99.90
11446;DHT22;5779;64.178;15.432;2022-07-10T14:09:26;12.70;99.90
11446;DHT22;5779;64.178;15.432;2022-07-10T14:12:13;12.70;99.90
11446;DHT22;5779;64.178;15.432;2022-07-10T14:15:01;12.80;99.90
11446;DHT22;5779;64.178;15.432;2022-07-10T14:17:48;13.00;99.90
11446;DHT22;5779;64.178;15.432;2022-07-10T14:20:35;13.30;99.90
11446;DHT22;5779;64.178;15.432;2022-07-10T14:23:37;13.50;99.90
11446;DHT22;5779;64.178;15.432;2022-07-10T14:26:26;13.40;99.90
11446;DHT22;5779;64.178;15.432;2022-07-10T14:29:13;13.10;99.90
11446;DHT22;5779;64.178;15.432;2022-07-10T14:32:01;12.80;99.90
11446;DHT22;5779;64.178;15.432;2022-07-10T14:34:47;12.80;99.90
11446;DHT22;5779;64.178;15.432;2022-07-10T14:37:34;12.70;99.90
11446;DHT22;5779;64.178;15.432;2022-07-10T14:40:21;12.60;99.90
11446;DHT22;5779;64.178;15.432;2022-07-10T14:43:07;12.60;99.90
11446;DHT22;5779;64.178;15.432;2022-07-10T14:45:54;12.60;99.90
11446;DHT22;5779;64.178;15.432;2022-07-10T14:48:43;12.80;99.90
11446;DHT22;5779;64.178;15.432;2022-07-10T14:51:29;12.70;99.90
11446;DHT22;5779;64.178;15.432;2022-07-10T14:54:16;13.00;99.90
11446;DHT22;5779;64.178;15.432;2022-07-10T14:57:03;13.10;99.90
11446;DHT22;5779;64.178;15.432;2022-07-10T14:59:50;13.20;99.90
11446;DHT22;5779;64.178;15.432;2022-07-10T15:02:36;13.20;99.90
11446;DHT22;5779;64.178;15.432;2022-07-10T15:05:24;13.20;99.90
11446;DHT22;5779;64.178;15.432;2022-07-10T15:08:11;13.20;99.90
11446;DHT22;5779;64.178;15.432;2022-07-10T15:10:58;13.20;99.90
11446;DHT22;5779;64.178;15.432;2022-07-10T15:13:45;13.20;99.90
11446;DHT22;5779;64.178;15.432;2022-07-10T15:16:31;13.20;99.90
11446;DHT22;5779;64.178;15.432;2022-07-10T15:19:17;13.20;99.90
11446;DHT22;5779;64.178;15.432;2022-07-10T15:22:05;13.30;99.90
11446;DHT22;5779;64.178;15.432;2022-07-10T15:24:52;13.30;99.90
11446;DHT22;5779;64.178;15.432;2022-07-10T15:27:39;13.20;99.90
11446;DHT22;5779;64.178;15.432;2022-07-10T15:30:27;13.20;99.90
11446;DHT22;5779;64.178;15.432;2022-07-10T15:33:14;13.00;99.90
11446;DHT22;5779;64.178;15.432;2022-07-10T15:36:00;13.10;99.90
11446;DHT22;5779;64.178;15.432;2022-07-10T15:38:48;13.10;99.90
11446;DHT22;5779;64.178;15.432;2022-07-10T15:41:35;13.10;99.90
11446;DHT22;5779;64.178;15.432;2022-07-10T15:44:21;13.10;99.90
11446;DHT22;5779;64.178;15.432;2022-07-10T15:47:08;12.90;99.90
11446;DHT22;5779;64.178;15.432;2022-07-10T15:49:56;12.60;99.90
11446;DHT22;5779;64.178;15.432;2022-07-10T15:52:43;12.40;99.90
11446;DHT22;5779;64.178;15.432;2022-07-10T15:55:32;12.30;99.90
11446;DHT22;5779;64.178;15.432;2022-07-10T15:58:18;12.50;99.90
11446;DHT22;5779;64.178;15.432;2022-07-10T16:01:05;12.60;99.90
11446;DHT22;5779;64.178;15.432;2022-07-10T16:03:52;12.50;99.90
11446;DHT22;5779;64.178;15.432;2022-07-10T16:06:39;12.40;99.90
11446;DHT22;5779;64.178;15.432;2022-07-10T16:09:26;12.40;99.90
11446;DHT22;5779;64.178;15.432;2022-07-10T16:12:14;12.40;99.90
11446;DHT22;5779;64.178;15.432;2022-07-10T16:15:01;12.30;99.90
11446;DHT22;5779;64.178;15.432;2022-07-10T16:17:48;12.30;99.90
11446;DHT22;5779;64.178;15.432;2022-07-10T16:20:34;12.30;99.90
11446;DHT22;5779;64.178;15.432;2022-07-10T16:23:22;12.20;99.90
11446;DHT22;5779;64.178;15.432;2022-07-10T16:26:09;12.20;99.90
11446;DHT22;5779;64.178;15.432;2022-07-10T16:28:58;12.20;99.90
11446;DHT22;5779;64.178;15.432;2022-07-10T16:31:45;12.20;99.90
11446;DHT22;5779;64.178;15.432;2022-07-10T16:34:31;12.30;99.90
11446;DHT22;5779;64.178;15.432;2022-07-10T16:37:18;12.40;99.90
11446;DHT22;5779;64.178;15.432;2022-07-10T16:40:06;12.60;99.90
11446;DHT22;5779;64.178;15.432;2022-07-10T16:42:53;12.60;99.90
11446;DHT22;5779;64.178;15.432;2022-07-10T16:45:41;12.90;99.90
11446;DHT22;5779;64.178;15.432;2022-07-10T16:48:28;12.90;99.90
11446;DHT22;5779;64.178;15.432;2022-07-10T16:51:14;12.90;99.90
11446;DHT22;5779;64.178;15.432;2022-07-10T16:54:01;12.80;99.90
11446;DHT22;5779;64.178;15.432;2022-07-10T16:56:48;12.80;99.90
11446;DHT22;5779;64.178;15.432;2022-07-10T16:59:35;12.70;99.90
11446;DHT22;5779;64.178;15.432;2022-07-10T17:02:23;12.60;99.90
11446;DHT22;5779;64.178;15.432;2022-07-10T17:05:10;12.60;99.90
11446;DHT22;5779;64.178;15.432;2022-07-10T17:07:57;12.60;99.90
11446;DHT22;5779;64.178;15.432;2022-07-10T17:10:43;12.70;99.90
11446;DHT22;5779;64.178;15.432;2022-07-10T17:13:30;12.70;99.90
11446;DHT22;5779;64.178;15.432;2022-07-10T17:16:17;12.70;99.90
11446;DHT22;5779;64.178;15.432;2022-07-10T17:19:05;12.80;99.90
11446;DHT22;5779;64.178;15.432;2022-07-10T17:21:51;13.00;99.90
11446;DHT22;5779;64.178;15.432;2022-07-10T17:24:38;13.30;99.90
11446;DHT22;5779;64.178;15.432;2022-07-10T17:27:25;13.70;99.90
11446;DHT22;5779;64.178;15.432;2022-07-10T17:30:11;13.90;99.90
11446;DHT22;5779;64.178;15.432;2022-07-10T17:32:58;14.00;99.90
11446;DHT22;5779;64.178;15.432;2022-07-10T17:35:46;14.00;99.90
11446;DHT22;5779;64.178;15.432;2022-07-10T17:38:33;14.10;99.90
11446;DHT22;5779;64.178;15.432;2022-07-10T17:41:19;14.20;99.90
11446;DHT22;5779;64.178;15.432;2022-07-10T17:44:06;14.30;99.90